createdAt,value
2022-08-08T00:01:13.843Z,1.70
2022-08-08T00:03:49.255Z,1.60
2022-08-08T00:06:28.271Z,1.80
2022-08-08T00:09:07.774Z,1.80
2022-08-08T00:11:46.770Z,1.90
2022-08-08T00:14:59.090Z,1.80
2022-08-08T00:20:07.910Z,1.60
2022-08-08T00:22:47.330Z,1.70
2022-08-08T00:25:21.955Z,1.60
2022-08-08T00:27:54.530Z,1.50
2022-08-08T00:30:27.885Z,2.00
2022-08-08T00:33:03.077Z,1.40
2022-08-08T00:35:48.810Z,1.50
2022-08-08T00:38:51.693Z,1.70
2022-08-08T00:44:33.346Z,1.30
2022-08-08T00:47:24.053Z,1.40
2022-08-08T00:50:26.933Z,1.30
2022-08-08T00:53:06.720Z,1.40
2022-08-08T00:55:59.143Z,2.30
2022-08-08T00:58:54.218Z,1.40
2022-08-08T01:01:38.421Z,1.40
2022-08-08T01:04:42.011Z,1.60
2022-08-08T01:07:34.416Z,1.40
2022-08-08T01:10:53.272Z,1.50
2022-08-08T01:13:52.909Z,1.50
2022-08-08T01:16:46.609Z,1.70
2022-08-08T01:19:52.222Z,1.50
2022-08-08T01:22:46.853Z,1.40
2022-08-08T01:25:40.307Z,1.50
2022-08-08T01:28:30.352Z,1.60
2022-08-08T01:32:13.740Z,1.70
2022-08-08T01:34:42.630Z,1.60
2022-08-08T01:37:56.253Z,1.50
2022-08-08T01:40:31.217Z,1.60
2022-08-08T01:43:05.359Z,1.50
2022-08-08T01:45:56.076Z,1.40
2022-08-08T01:48:36.213Z,1.90
2022-08-08T01:51:30.603Z,1.70
2022-08-08T01:55:25.474Z,1.70
2022-08-08T01:57:18.972Z,2.10
2022-08-08T02:00:13.107Z,1.60
2022-08-08T02:03:03.135Z,1.50
2022-08-08T02:05:58.820Z,1.60
2022-08-08T02:08:39.420Z,1.60
2022-08-08T02:11:59.342Z,1.60
2022-08-08T02:14:22.153Z,1.20
2022-08-08T02:16:58.915Z,1.90
2022-08-08T02:19:57.101Z,1.40
2022-08-08T02:22:52.448Z,1.50
2022-08-08T02:25:43.576Z,1.50
2022-08-08T02:28:25.942Z,1.40
2022-08-08T02:31:04.638Z,1.70
2022-08-08T02:34:00.678Z,1.50
2022-08-08T02:36:40.766Z,1.70
2022-08-08T02:39:40.893Z,1.50
2022-08-08T02:42:38.315Z,1.50
2022-08-08T02:45:21.838Z,1.50
2022-08-08T02:48:26.276Z,2.00
2022-08-08T02:51:47.598Z,1.50
2022-08-08T02:54:37.063Z,1.40
2022-08-08T02:57:40.374Z,1.50
2022-08-08T03:00:29.736Z,1.40
2022-08-08T03:03:46.076Z,1.30
2022-08-08T03:06:34.916Z,1.60
2022-08-08T03:09:36.535Z,2.50
2022-08-08T03:12:36.385Z,1.70
2022-08-08T03:15:58.109Z,1.40
2022-08-08T03:18:31.458Z,1.40
2022-08-08T03:21:10.190Z,1.50
2022-08-08T03:23:59.455Z,1.40
2022-08-08T03:26:42.295Z,1.60
2022-08-08T03:29:18.686Z,1.90
2022-08-08T03:32:16.107Z,1.30
2022-08-08T03:34:49.113Z,1.50
2022-08-08T03:37:59.757Z,1.30
2022-08-08T03:40:29.758Z,1.80
2022-08-08T03:43:16.631Z,1.50
2022-08-08T03:46:06.610Z,1.40
2022-08-08T03:49:31.030Z,1.60
2022-08-08T03:51:50.575Z,1.60
2022-08-08T03:54:41.637Z,1.70
2022-08-08T03:58:31.632Z,1.60
2022-08-08T04:00:12.219Z,1.50
2022-08-08T04:03:01.576Z,1.90
2022-08-08T04:05:35.062Z,1.50
2022-08-08T04:08:32.481Z,1.70
2022-08-08T04:11:11.275Z,1.60
2022-08-08T04:14:33.451Z,1.50
2022-08-08T04:16:41.420Z,1.40
2022-08-08T04:19:23.809Z,2.00
2022-08-08T04:22:00.348Z,1.70
2022-08-08T04:24:37.200Z,1.40
2022-08-08T04:27:42.779Z,1.40
2022-08-08T04:30:18.435Z,1.60
2022-08-08T04:32:52.372Z,1.80
2022-08-08T04:35:25.872Z,1.70
2022-08-08T04:38:00.460Z,1.40
2022-08-08T04:40:51.772Z,1.50
2022-08-08T04:43:32.425Z,1.70
2022-08-08T04:46:19.349Z,1.50
2022-08-08T04:48:51.932Z,1.30
2022-08-08T04:51:27.910Z,1.40
2022-08-08T04:54:39.283Z,2.60
2022-08-08T04:57:05.392Z,1.50
2022-08-08T04:59:42.204Z,2.00
2022-08-08T05:02:14.578Z,1.90
2022-08-08T05:04:45.883Z,1.50
2022-08-08T05:07:18.942Z,1.80
2022-08-08T05:09:49.706Z,2.00
2022-08-08T05:12:21.262Z,1.50
2022-08-08T05:15:08.710Z,2.80
2022-08-08T05:17:53.564Z,1.70
2022-08-08T05:20:27.876Z,1.80
2022-08-08T05:22:58.713Z,1.90
2022-08-08T05:25:40.505Z,2.10
2022-08-08T05:28:15.734Z,2.50
2022-08-08T05:31:19.216Z,5.00
2022-08-08T05:33:57.852Z,1.40
2022-08-08T05:36:30.053Z,1.90
2022-08-08T05:39:01.398Z,2.00
2022-08-08T05:41:35.141Z,2.10
2022-08-08T05:44:31.141Z,2.00
2022-08-08T05:47:04.983Z,2.70
2022-08-08T05:49:38.094Z,2.10
2022-08-08T05:54:50.731Z,2.20
2022-08-08T06:00:25.424Z,2.50
2022-08-08T06:03:17.238Z,2.60
2022-08-08T06:06:01.209Z,2.20
2022-08-08T06:08:36.910Z,2.20
2022-08-08T06:11:13.399Z,2.00
2022-08-08T06:13:49.435Z,2.60
2022-08-08T06:16:30.340Z,2.70
2022-08-08T06:19:14.464Z,2.40
2022-08-08T06:21:57.093Z,2.30
2022-08-08T06:24:50.915Z,2.90
2022-08-08T06:27:23.474Z,2.10
2022-08-08T06:30:00.836Z,2.50
2022-08-08T06:32:40.218Z,2.30
2022-08-08T06:36:06.019Z,2.40
2022-08-08T06:38:14.245Z,2.50
2022-08-08T06:40:53.908Z,2.30
2022-08-08T06:43:30.552Z,3.30
2022-08-08T06:46:09.206Z,2.80
2022-08-08T06:48:44.335Z,2.00
2022-08-08T06:51:17.406Z,2.40
2022-08-08T06:53:50.716Z,2.20
2022-08-08T06:56:31.223Z,2.20
2022-08-08T06:59:02.409Z,2.00
2022-08-08T07:02:27.614Z,2.20
2022-08-08T07:07:19.149Z,2.70
2022-08-08T07:09:56.673Z,2.50
2022-08-08T07:12:35.729Z,2.10
2022-08-08T07:15:15.495Z,2.70
2022-08-08T07:18:01.581Z,3.50
2022-08-08T07:20:40.506Z,3.20
2022-08-08T07:23:23.923Z,3.30
2022-08-08T07:25:57.585Z,3.30
2022-08-08T07:28:31.399Z,3.50
2022-08-08T07:31:06.633Z,3.00
2022-08-08T07:33:53.280Z,3.60
2022-08-08T07:36:30.564Z,4.00
2022-08-08T07:39:03.683Z,3.50
2022-08-08T07:44:37.841Z,4.00
2022-08-08T07:47:12.557Z,3.60
2022-08-08T07:49:46.190Z,3.40
2022-08-08T07:52:26.634Z,3.70
2022-08-08T07:54:59.898Z,3.70
2022-08-08T07:57:41.010Z,4.20
2022-08-08T08:00:20.038Z,4.40
2022-08-08T08:03:12.373Z,5.10
2022-08-08T08:05:53.297Z,4.20
2022-08-08T08:08:32.387Z,3.70
2022-08-08T08:11:04.064Z,4.30
2022-08-08T08:13:42.958Z,3.60
2022-08-08T08:19:01.061Z,3.50
2022-08-08T08:21:52.486Z,3.50
2022-08-08T08:24:46.983Z,3.20
2022-08-08T08:27:20.282Z,3.50
2022-08-08T08:29:53.334Z,3.30
2022-08-08T08:32:36.033Z,3.20
2022-08-08T08:35:15.125Z,3.30
2022-08-08T08:38:12.880Z,3.10
2022-08-08T08:40:39.371Z,2.90
2022-08-08T08:43:16.786Z,3.20
2022-08-08T08:45:49.013Z,3.00
2022-08-08T08:48:21.166Z,2.70
2022-08-08T08:50:55.930Z,2.70
2022-08-08T08:53:56.474Z,3.20
2022-08-08T08:56:23.965Z,2.90
2022-08-08T08:58:57.953Z,2.60
2022-08-08T09:01:34.946Z,3.20
2022-08-08T09:04:10.080Z,2.50
2022-08-08T09:07:00.159Z,2.80
2022-08-08T09:09:39.617Z,2.60
2022-08-08T09:12:20.359Z,2.80
2022-08-08T09:14:52.723Z,3.10
2022-08-08T09:17:40.644Z,2.30
2022-08-08T09:22:04.773Z,2.40
2022-08-08T09:23:10.548Z,2.60
2022-08-08T09:25:54.546Z,2.50
2022-08-08T09:28:37.350Z,2.10
2022-08-08T09:31:16.289Z,2.10
2022-08-08T09:34:15.488Z,2.40
2022-08-08T09:36:51.798Z,2.40
2022-08-08T09:39:44.311Z,1.60
2022-08-08T09:42:20.944Z,1.70
2022-08-08T09:45:03.854Z,1.70
2022-08-08T09:48:04.179Z,2.10
2022-08-08T09:50:28.274Z,1.40
2022-08-08T09:53:02.249Z,1.80
2022-08-08T09:56:03.433Z,1.50
2022-08-08T09:58:41.383Z,1.40
2022-08-08T10:01:15.252Z,1.30
2022-08-08T10:04:07.578Z,1.60
2022-08-08T10:06:45.176Z,1.50
2022-08-08T10:09:16.321Z,1.80
2022-08-08T10:12:26.756Z,1.60
2022-08-08T10:14:43.507Z,1.70
2022-08-08T10:17:57.431Z,1.60
2022-08-08T10:20:05.039Z,1.20
2022-08-08T10:22:54.822Z,1.20
2022-08-08T10:25:26.480Z,1.00
2022-08-08T10:28:14.941Z,1.40
2022-08-08T10:31:00.807Z,1.60
2022-08-08T10:33:38.173Z,1.40
2022-08-08T10:36:26.530Z,1.00
2022-08-08T10:39:07.144Z,1.20
2022-08-08T10:41:58.545Z,1.20
2022-08-08T10:44:35.913Z,1.80
2022-08-08T10:47:14.328Z,1.10
2022-08-08T10:50:00.663Z,1.30
2022-08-08T10:52:34.113Z,1.30
2022-08-08T10:55:06.803Z,1.40
2022-08-08T10:57:49.879Z,1.20
2022-08-08T11:00:25.742Z,1.40
2022-08-08T11:02:56.966Z,1.30
2022-08-08T11:05:38.899Z,1.50
2022-08-08T11:08:31.277Z,1.40
2022-08-08T11:11:07.980Z,1.30
2022-08-08T11:14:00.574Z,1.60
2022-08-08T11:16:33.590Z,1.20
2022-08-08T11:19:06.112Z,1.30
2022-08-08T11:21:54.016Z,1.40
2022-08-08T11:24:29.260Z,1.30
2022-08-08T11:27:10.619Z,1.40
2022-08-08T11:30:19.810Z,1.70
2022-08-08T11:32:42.514Z,1.80
2022-08-08T11:35:24.904Z,1.10
2022-08-08T11:38:36.036Z,1.50
2022-08-08T11:40:55.992Z,1.50
2022-08-08T11:43:38.610Z,1.30
2022-08-08T11:46:13.984Z,1.20
2022-08-08T11:48:49.855Z,1.50
2022-08-08T11:51:30.676Z,1.40
2022-08-08T11:54:32.476Z,1.30
2022-08-08T11:57:13.978Z,1.30
2022-08-08T12:00:01.866Z,1.20
2022-08-08T12:02:51.142Z,1.30
2022-08-08T12:05:33.651Z,1.40
2022-08-08T12:08:05.184Z,1.30
2022-08-08T12:10:47.574Z,1.30
2022-08-08T12:15:49.867Z,1.20
2022-08-08T12:18:24.510Z,1.20
2022-08-08T12:20:56.447Z,1.70
2022-08-08T12:23:42.682Z,0.90
2022-08-08T12:26:28.555Z,1.60
2022-08-08T12:29:21.626Z,1.00
2022-08-08T12:32:03.095Z,1.40
2022-08-08T12:34:44.096Z,1.30
2022-08-08T12:37:20.074Z,1.10
2022-08-08T12:40:01.236Z,1.40
2022-08-08T12:42:34.994Z,1.10
2022-08-08T12:45:53.899Z,1.00
2022-08-08T12:48:36.683Z,1.40
2022-08-08T12:51:02.721Z,1.30
2022-08-08T12:53:42.045Z,1.40
2022-08-08T12:56:19.486Z,1.20
2022-08-08T12:58:55.394Z,2.20
2022-08-08T13:01:37.722Z,1.20
2022-08-08T13:04:18.815Z,1.10
2022-08-08T13:07:02.855Z,1.60
2022-08-08T13:09:42.821Z,1.40
2022-08-08T13:12:30.203Z,1.30
2022-08-08T13:15:02.331Z,1.10
2022-08-08T13:20:26.095Z,0.90
2022-08-08T13:25:50.085Z,1.40
2022-08-08T13:28:33.081Z,1.40
2022-08-08T13:31:04.642Z,1.30
2022-08-08T13:33:42.415Z,1.20
2022-08-08T13:36:13.706Z,1.40
2022-08-08T13:38:44.840Z,1.30
2022-08-08T13:41:16.115Z,0.90
2022-08-08T13:46:26.336Z,1.50
2022-08-08T13:49:12.005Z,1.10
2022-08-08T13:51:59.572Z,1.30
2022-08-08T13:54:32.957Z,1.40
2022-08-08T13:57:12.455Z,1.00
2022-08-08T13:59:48.287Z,1.20
2022-08-08T14:02:21.182Z,1.10
2022-08-08T14:04:55.806Z,1.10
2022-08-08T14:07:29.922Z,1.10
2022-08-08T14:10:04.863Z,1.20
2022-08-08T14:12:43.749Z,2.30
2022-08-08T14:15:31.527Z,1.10
2022-08-08T14:18:34.790Z,1.00
2022-08-08T14:21:08.064Z,1.20
2022-08-08T14:24:03.815Z,1.20
2022-08-08T14:26:42.469Z,1.40
2022-08-08T14:29:29.036Z,1.50
2022-08-08T14:32:10.820Z,1.40
2022-08-08T14:34:43.703Z,1.40
2022-08-08T14:37:19.216Z,1.30
2022-08-08T14:39:53.698Z,1.50
2022-08-08T14:42:35.802Z,1.70
2022-08-08T14:45:10.121Z,1.30
2022-08-08T14:47:51.399Z,1.00
2022-08-08T14:50:37.913Z,1.10
2022-08-08T14:53:13.274Z,1.10
2022-08-08T14:55:45.098Z,1.40
2022-08-08T15:00:52.754Z,1.60
2022-08-08T15:03:25.117Z,1.30
2022-08-08T15:05:58.793Z,1.20
2022-08-08T15:08:35.640Z,1.20
2022-08-08T15:11:14.484Z,1.00
2022-08-08T15:14:01.847Z,1.20
2022-08-08T15:16:34.075Z,1.70
2022-08-08T15:19:07.033Z,1.40
2022-08-08T15:27:57.709Z,1.60
2022-08-08T15:30:12.706Z,1.30
2022-08-08T15:32:45.317Z,1.30
2022-08-08T15:35:17.348Z,1.40
2022-08-08T15:37:52.009Z,1.40
2022-08-08T15:40:28.234Z,1.40
2022-08-08T15:42:59.523Z,1.10
2022-08-08T15:45:30.474Z,1.50
2022-08-08T15:48:15.607Z,1.70
2022-08-08T15:51:02.967Z,1.10
2022-08-08T15:53:49.032Z,1.30
2022-08-08T15:56:21.167Z,1.50
2022-08-08T15:58:52.658Z,1.60
2022-08-08T16:01:23.363Z,1.40
2022-08-08T16:04:13.913Z,1.20
2022-08-08T16:06:48.456Z,1.40
2022-08-08T16:13:10.887Z,1.30
2022-08-08T16:13:13.952Z,1.70
2022-08-08T16:15:00.804Z,3.70
2022-08-08T16:17:57.753Z,13.20
2022-08-08T16:20:21.957Z,4.70
2022-08-08T16:22:54.411Z,3.30
2022-08-08T16:25:29.931Z,3.50
2022-08-08T16:28:22.873Z,16.70
2022-08-08T16:31:07.563Z,3.10
2022-08-08T16:33:40.198Z,2.20
2022-08-08T16:36:15.640Z,1.80
2022-08-08T16:38:47.570Z,1.50
2022-08-08T16:41:24.333Z,1.60
2022-08-08T16:43:55.186Z,1.80
2022-08-08T16:46:37.332Z,1.20
2022-08-08T16:49:15.420Z,1.50
2022-08-08T16:55:00.056Z,1.60
2022-08-08T16:55:04.907Z,1.90
2022-08-08T16:58:14.527Z,1.80
2022-08-08T17:00:26.349Z,1.70
2022-08-08T17:02:57.842Z,1.70
2022-08-08T17:05:42.339Z,1.30
2022-08-08T17:08:15.999Z,1.50
2022-08-08T17:10:53.583Z,1.10
2022-08-08T17:13:41.248Z,1.50
2022-08-08T17:16:22.252Z,1.30
2022-08-08T17:18:55.390Z,1.20
2022-08-08T17:21:26.002Z,1.30
2022-08-08T17:23:58.154Z,1.60
2022-08-08T17:26:31.561Z,1.40
2022-08-08T17:29:04.384Z,1.80
2022-08-08T17:31:44.420Z,1.40
2022-08-08T17:34:48.704Z,1.70
2022-08-08T17:37:09.252Z,1.70
2022-08-08T17:40:04.695Z,1.40
2022-08-08T17:42:33.635Z,2.80
2022-08-08T17:45:04.756Z,1.70
2022-08-08T17:50:11.867Z,1.60
2022-08-08T17:52:43.092Z,1.50
2022-08-08T17:56:06.022Z,1.70
2022-08-08T17:58:04.892Z,1.60
2022-08-08T18:00:38.978Z,1.60
2022-08-08T18:03:13.256Z,2.00
2022-08-08T18:05:49.247Z,1.70
2022-08-08T18:08:36.883Z,1.50
2022-08-08T18:11:15.504Z,1.60
2022-08-08T18:13:47.685Z,1.90
2022-08-08T18:16:23.332Z,2.20
2022-08-08T18:18:56.384Z,1.80
2022-08-08T18:24:21.339Z,2.00
2022-08-08T18:26:56.641Z,2.30
2022-08-08T18:29:33.509Z,2.30
2022-08-08T18:32:06.721Z,2.00
2022-08-08T18:34:40.445Z,2.40
2022-08-08T18:37:33.509Z,2.90
2022-08-08T18:40:06.359Z,1.90
2022-08-08T18:42:45.711Z,2.40
2022-08-08T18:46:00.882Z,2.00
2022-08-08T18:48:18.207Z,2.30
2022-08-08T18:50:50.199Z,2.40
2022-08-08T18:53:50.882Z,2.40
2022-08-08T18:56:23.419Z,2.40
2022-08-08T18:58:54.298Z,2.50
2022-08-08T19:02:25.966Z,2.40
2022-08-08T19:04:15.748Z,2.60
2022-08-08T19:06:47.140Z,2.90
2022-08-08T19:09:32.341Z,3.00
2022-08-08T19:12:13.297Z,2.90
2022-08-08T19:14:44.882Z,2.40
2022-08-08T19:17:28.811Z,2.90
2022-08-08T19:20:07.652Z,3.20
2022-08-08T19:22:40.270Z,2.60
2022-08-08T19:26:20.060Z,2.80
2022-08-08T19:28:18.028Z,2.80
2022-08-08T19:31:04.056Z,2.80
2022-08-08T19:33:52.181Z,2.20
2022-08-08T19:36:28.546Z,2.60
2022-08-08T19:38:59.168Z,2.50
2022-08-08T19:41:30.115Z,2.40
2022-08-08T19:44:03.984Z,2.80
2022-08-08T19:46:43.549Z,2.60
2022-08-08T19:49:15.562Z,2.20
2022-08-08T19:51:46.446Z,3.20
2022-08-08T19:54:20.109Z,2.40
2022-08-08T19:56:50.659Z,3.10
2022-08-08T19:59:22.688Z,2.50
2022-08-08T20:02:02.988Z,3.10
2022-08-08T20:04:35.639Z,3.20
2022-08-08T20:08:29.192Z,3.50
2022-08-08T20:10:00.909Z,3.20
2022-08-08T20:12:35.255Z,3.00
2022-08-08T20:15:14.530Z,3.30
2022-08-08T20:17:48.916Z,3.80
2022-08-08T20:20:22.140Z,3.50
2022-08-08T20:22:54.333Z,3.70
2022-08-08T20:25:29.861Z,3.40
2022-08-08T20:28:06.619Z,3.20
2022-08-08T20:30:56.237Z,2.70
2022-08-08T20:34:03.922Z,2.90
2022-08-08T20:36:22.228Z,3.60
2022-08-08T20:38:53.110Z,3.50
2022-08-08T20:41:24.157Z,2.60
2022-08-08T20:43:58.257Z,3.10
2022-08-08T20:46:29.397Z,3.10
2022-08-08T20:49:00.148Z,2.90
2022-08-08T20:51:31.741Z,2.90
2022-08-08T20:54:09.522Z,3.60
2022-08-08T20:57:05.784Z,2.80
2022-08-08T20:59:41.447Z,3.20
2022-08-08T21:04:50.120Z,2.20
2022-08-08T21:07:47.974Z,2.70
2022-08-08T21:10:12.795Z,3.20
2022-08-08T21:12:44.444Z,3.80
2022-08-08T21:16:05.937Z,3.30
2022-08-08T21:18:07.419Z,3.00
2022-08-08T21:20:38.077Z,3.40
2022-08-08T21:23:09.340Z,3.20
2022-08-08T21:25:40.245Z,3.70
2022-08-08T21:28:15.753Z,3.90
2022-08-08T21:30:49.698Z,3.80
2022-08-08T21:33:22.890Z,3.60
2022-08-08T21:36:16.496Z,3.90
2022-08-08T21:38:44.126Z,3.80
2022-08-08T21:41:28.901Z,3.90
2022-08-08T21:44:06.064Z,4.70
2022-08-08T21:48:05.363Z,4.10
2022-08-08T21:49:27.309Z,3.70
2022-08-08T21:54:34.992Z,4.00
2022-08-08T21:54:54.287Z,4.10
2022-08-08T21:57:41.809Z,4.50
2022-08-08T22:00:14.211Z,4.20
2022-08-08T22:02:46.392Z,3.80
2022-08-08T22:05:16.861Z,4.20
2022-08-08T22:07:49.015Z,4.00
2022-08-08T22:10:28.776Z,3.60
2022-08-08T22:13:18.755Z,4.10
2022-08-08T22:15:58.828Z,4.20
2022-08-08T22:18:35.615Z,4.00
2022-08-08T22:21:14.685Z,4.20
2022-08-08T22:23:50.636Z,4.40
2022-08-08T22:26:29.568Z,3.60
2022-08-08T22:29:14.966Z,3.50
2022-08-08T22:32:01.720Z,3.60
2022-08-08T22:34:39.449Z,3.20
2022-08-08T22:37:15.097Z,3.70
2022-08-08T22:40:02.168Z,3.30
2022-08-08T22:42:34.650Z,3.70
2022-08-08T22:45:12.378Z,3.60
2022-08-08T22:47:47.437Z,3.30
2022-08-08T22:50:27.456Z,3.20
2022-08-08T22:54:31.231Z,3.20
2022-08-08T22:55:56.042Z,3.60
2022-08-08T22:58:33.056Z,3.50
2022-08-08T23:02:01.248Z,3.90
2022-08-08T23:03:56.558Z,3.50
2022-08-08T23:06:27.754Z,3.30
2022-08-08T23:09:00.215Z,3.70
2022-08-08T23:12:28.935Z,3.10
2022-08-08T23:14:22.618Z,3.70
2022-08-08T23:16:59.707Z,3.30
2022-08-08T23:19:30.848Z,3.70
2022-08-08T23:22:04.986Z,3.80
2022-08-08T23:24:41.367Z,3.90
2022-08-08T23:27:38.127Z,3.10
2022-08-08T23:30:04.297Z,3.70
2022-08-08T23:32:35.287Z,3.50
2022-08-08T23:35:17.221Z,3.50
2022-08-08T23:38:02.888Z,3.10
2022-08-08T23:40:34.490Z,3.50
2022-08-08T23:43:06.875Z,3.60
2022-08-08T23:49:00.410Z,3.70
2022-08-08T23:49:07.120Z,3.20
2022-08-08T23:51:41.945Z,3.70
2022-08-08T23:54:41.331Z,3.60
2022-08-08T23:57:00.328Z,3.20
2022-08-08T23:59:31.900Z,3.50
